• Join FlightAware (Why Join?)
  • Login
  • US Flag 
01:17PM EDT


 

Airport Tracker/Info


-or-


 

Live Flight TrackerFlight Track Log ✈ UAL709 ✈ 19-Aug-2013 ✈ KORD - KSAN

Flight Track Log - Related Links

Times and Time Zones

All times are in EDT time to prevent confusion due to time zone crossing. See the UAL709 flight status page for this flight to view local times or setup timezone preferences in your user account.

Time Position Orientation Groundspeed Altitude Reporting Facility
EDT Latitude Longitude Course Direction KTS MPH feet Rate Location/Type
11:44AM 42.0000 -88.0000 252° West 207 238 2,700  Level Chicago TRACON
11:46AM 41.9906 -88.1597 266° West 243 280 6,500 2,340 Climbing Chicago Center
11:47AM 41.8302 -88.4977 254° West  Level FlightAware Approximate
11:47AM 41.9869 -88.2611 267° West 268 308 9,500  Level Chicago Center
11:48AM 41.7967 -88.6494 254° West  Level FlightAware Approximate
11:48AM 41.9669 -88.3869 258° West 293 337 12,100  Level Chicago Center
11:49AM 41.7630 -88.8010 253° West  Level FlightAware Approximate
11:49AM 41.9353 -88.5031 250° West 328 377 13,200  Level Chicago Center
11:50AM 41.7296 -88.9482 252° West  Level FlightAware Approximate
11:50AM 41.9000 -88.6314 250° West 360 414 15,000  Level Chicago Center
11:51AM 41.8644 -88.7608 250° West 373 429 17,100 1,920 Climbing Chicago Center
11:53AM 41.8203 -88.9183 249° West 377 434 19,000 1,740 Climbing Chicago Center
11:54AM 41.7808 -89.0525 249° West 388 447 20,700 1,380 Climbing Chicago Center
11:55AM 41.7519 -89.1928 255° West 398 458 21,900 1,140 Climbing Chicago Center
11:56AM 41.7286 -89.3403 258° West 404 465 23,100 1,320 Climbing Chicago Center
11:57AM 41.7036 -89.4886 257° West 410 472 24,700 1,440 Climbing Chicago Center
11:58AM 41.6728 -89.6628 257° West 412 474 26,100 1,140 Climbing Chicago Center
11:59AM 41.6469 -89.8164 257° West 420 483 27,100 960 Climbing Chicago Center
12:00PM 41.6208 -89.9717 257° West 427 491 28,100 960 Climbing Chicago Center
12:01PM 41.5942 -90.1300 257° West 435 501 29,200 960 Climbing Chicago Center
12:02PM 41.5650 -90.2894 256° West 441 507 30,100 960 Climbing Chicago Center
12:03PM 41.5367 -90.4483 257° West 442 509 31,200 1,140 Climbing Chicago Center
12:04PM 41.5033 -90.6336 257° West 433 498 32,500 1,020 Climbing Chicago Center
12:05PM 41.4750 -90.7892 256° West 431 496 33,400 720 Climbing Chicago Center
12:06PM 41.4475 -90.9431 257° West 430 495 34,000 240 Climbing Chicago Center
12:07PM 41.4194 -91.0947 256° West 426 490 34,000  Level Chicago Center
12:08PM 41.3908 -91.2472 256° West 429 494 34,000  Level Chicago Center
12:09PM 41.3569 -91.4311 256° West 426 490 34,000  Level Chicago Center
12:10PM 41.3286 -91.5808 256° West 423 487 34,000  Level Chicago Center
12:11PM 41.2994 -91.7314 256° West 422 486 34,000  Level Chicago Center
12:12PM 41.2719 -91.8828 256° West 424 488 34,000  Level Chicago Center
12:13PM 41.2422 -92.0322 255° West 422 486 34,000  Level Chicago Center
12:14PM 41.2108 -92.1933 256° West 422 486 34,000  Level Chicago Center
12:15PM 41.1817 -92.3417 255° West 422 486 34,000  Level Chicago Center
12:16PM 41.1464 -92.5197 255° West 421 484 34,000  Level Chicago Center
12:17PM 41.1167 -92.6686 255° West 423 487 34,000  Level Chicago Center
12:18PM 41.0872 -92.8136 255° West 416 479 34,000  Level Chicago Center
12:19PM 41.0578 -92.9583 255° West 413 475 34,000  Level Chicago Center
12:20PM 41.0281 -93.1061 255° West 417 480 34,000  Level Chicago Center
12:21PM 40.9919 -93.2819 255° West 417 480 34,000  Level Chicago Center
12:23PM 40.9614 -93.4258 254° West 413 475 34,000  Level Chicago Center
12:24PM 40.9317 -93.5703 255° West 411 473 34,000  Level Chicago Center
12:25PM 40.9017 -93.7167 255° West 415 478 34,000  Level Chicago Center
12:26PM 40.8647 -93.8889 254° West 411 473 34,000  Level Chicago Center
12:27PM 40.8342 -94.0339 254° West 413 475 34,000  Level Chicago Center
12:28PM 40.8039 -94.1794 255° West 416 479 34,000  Level Chicago Center
12:29PM 40.7722 -94.3242 254° West 414 476 34,000  Level Chicago Center
12:30PM 40.7397 -94.4692 254° West 415 478 34,000  Level Chicago Center
12:31PM 40.6906 -94.6897 254° West 420 483 34,000  Level Minneapolis Center
12:32PM 40.6500 -94.8703 254° West 424 488 34,000  Level Minneapolis Center
12:33PM 40.6167 -95.0214 254° West 427 491 34,000  Level Minneapolis Center
12:34PM 40.5836 -95.1731 254° West 430 495 34,000  Level Minneapolis Center
12:35PM 40.5486 -95.3247 253° West 430 495 34,000  Level Minneapolis Center
12:36PM 40.5142 -95.4764 253° West 431 496 34,000  Level Minneapolis Center
12:37PM 40.4797 -95.6297 254° West 433 498 34,000  Level Minneapolis Center
12:38PM 40.4439 -95.7817 253° West 434 499 34,000  Level Minneapolis Center
12:40PM 40.4022 -95.9625 253° West 431 496 34,000  Level Minneapolis Center
12:41PM 40.3603 -96.1439 253° West 433 498 34,000 -60 Level Minneapolis Center
12:42PM 40.3256 -96.2925 253° West 428 493 33,900 -60 Descending Minneapolis Center
12:43PM 40.2892 -96.4419 252° West 429 494 33,900  Level Minneapolis Center
12:44PM 40.2536 -96.5936 253° West 433 498 34,000  Climbing Minneapolis Center
12:45PM 40.2172 -96.7458 253° West 437 503 34,000  Level Minneapolis Center
12:46PM 40.1800 -96.9000 253° West 441 507 34,000  Level Minneapolis Center
12:47PM 40.1353 -97.0836 252° West 443 510 34,000  Level Minneapolis Center
12:48PM 40.0964 -97.2397 252° West 447 514 34,000  Level Minneapolis Center
12:49PM 40.0603 -97.3833 252° West 448 516 34,000  Level Minneapolis Center
12:50PM 40.0217 -97.5389 252° West 449 517 34,000  Level Minneapolis Center
12:51PM 39.9833 -97.6925 252° West 446 513 34,000  Level Minneapolis Center
12:52PM 39.9364 -97.8781 252° West 447 514 34,000  Level Minneapolis Center
12:53PM 39.9064 -98.0008 252° West 446 513 34,000  Level Minneapolis Center
12:54PM 39.8589 -98.1867 252° West 448 516 34,000  Level Minneapolis Center
12:55PM 39.8189 -98.3419 252° West 450 518 34,000  Level Minneapolis Center
12:56PM 39.7789 -98.4958 251° West 449 517 34,000  Level Minneapolis Center
12:57PM 39.7386 -98.6511 251° West 451 519 34,000  Level Minneapolis Center
12:58PM 39.6897 -98.8350 251° West 450 518 34,000  Level Minneapolis Center
12:59PM 39.6500 -98.9897 252° West 450 518 34,000  Level Minneapolis Center
01:00PM 39.6092 -99.1431 251° West 450 518 34,000  Level Minneapolis Center
01:01PM 39.5686 -99.2964 251° West 450 518 34,000  Level Denver Center
01:02PM 39.5267 -99.4511 251° West 453 521 34,000  Level Denver Center
01:03PM 39.4842 -99.6047 250° West 453 521 34,000  Level Denver Center
01:05PM 39.4392 -99.7706 251° West 451 519 34,000  Level Denver Center
01:06PM 39.3925 -99.9447 251° West 456 525 34,000  Level Denver Center
01:07PM 39.3514 -100.0931 250° West 457 526 34,000  Level Denver Center
01:08PM 39.3042 -100.2636 250° West 452 520 34,000  Level Denver Center
01:09PM 39.2628 -100.4089 250° West 452 520 34,000  Level Denver Center
01:10PM 39.2147 -100.5811 250° West 455 524 34,000  Level Denver Center
01:11PM 39.1744 -100.7269 250° West 451 519 34,000  Level Denver Center
01:12PM 39.1331 -100.8733 250° West 452 520 34,000  Level Denver Center
01:13PM 39.0842 -101.0428 250° West 452 520 34,000  Level Denver Center
01:14PM 39.0414 -101.1889 249° West 454 522 34,000  Level Denver Center
01:15PM 38.9967 -101.3431 250° West 453 521 34,000  Level Denver Center
01:16PM 38.9472 -101.5133 250° West 455 524 34,000  Level Denver Center
01:17PM 38.9053 -101.6586 250° West 453 521 34,000  Level Denver Center
01:18PM 38.8561 -101.8278 250° West 455 524 34,000  Level Denver Center
01:19PM 38.8131 -101.9717 249° West 454 522 34,000  Level Denver Center
01:20PM 38.7633 -102.1375 249° West 448 516 34,000  Level Denver Center
01:21PM 38.7214 -102.2792 249° West 446 513 34,000 60 Level Denver Center
01:22PM 38.6703 -102.4447 248° West 448 516 34,200 480 Climbing Denver Center
01:23PM 38.6278 -102.5867 249° West 448 516 35,000 840 Climbing Denver Center
01:24PM 38.5778 -102.7500 249° West 446 513 36,000 480 Climbing Denver Center
01:25PM 38.5339 -102.8903 248° West 445 512 36,000  Level Denver Center
01:26PM 38.4842 -103.0547 249° West 446 513 36,000  Level Denver Center
01:27PM 38.4408 -103.1961 249° West 448 516 36,000  Level Denver Center
01:28PM 38.3906 -103.3597 249° West 445 512 36,000  Level Denver Center
01:29PM 38.3458 -103.5003 248° West 446 513 36,000  Level Denver Center
01:30PM 38.2956 -103.6622 248° West 442 509 36,000  Level Denver Center
01:31PM 38.2522 -103.8008 248° West 442 509 36,000  Level Denver Center
01:32PM 38.2006 -103.9622 248° West 443 510 36,000  Level Denver Center
01:33PM 38.1561 -104.1017 248° West 445 512 36,000  Level Denver Center
01:35PM 38.1042 -104.2631 248° West 445 512 36,000  Level Denver Center
01:36PM 38.0594 -104.4014 248° West 445 512 36,000  Level Denver Center
01:37PM 38.0064 -104.5625 247° West 446 513 36,000  Level Denver Center
01:38PM 37.9617 -104.7008 248° West 445 512 36,000  Level Denver Center
01:39PM 37.9094 -104.8619 248° West 445 512 36,000  Level Denver Center
01:40PM 37.8628 -105.0003 247° West 447 514 36,000  Level Denver Center
01:41PM 37.8094 -105.1600 247° West 443 510 36,000  Level Denver Center
01:42PM 37.7650 -105.2972 248° West 441 507 36,000  Level Denver Center
01:43PM 37.7108 -105.4561 247° West 441 507 36,000  Level Denver Center
01:44PM 37.6636 -105.5928 246° West 443 510 36,000  Level Denver Center
01:45PM 37.6186 -105.7292 247° West 441 507 36,000  Level Denver Center
01:46PM 37.5642 -105.8867 246° West 440 506 36,000  Level Denver Center
01:47PM 37.5122 -106.0383 247° West 442 509 36,000  Level Denver Center
01:48PM 37.4656 -106.1742 247° West 441 507 36,000  Level Denver Center
01:49PM 37.4117 -106.3322 247° West 440 506 36,000  Level Denver Center
01:50PM 37.3644 -106.4686 246° West 444 511 36,000  Level Denver Center
01:51PM 37.3089 -106.6261 246° West 442 509 36,000  Level Denver Center
01:52PM 37.2617 -106.7600 246° West 439 505 36,000  Level Denver Center
01:53PM 37.2064 -106.9181 246° West 441 507 36,000  Level Denver Center
01:54PM 37.1600 -107.0528 247° West 441 507 36,000  Level Denver Center
01:55PM 37.1122 -107.1869 246° West 442 509 36,000  Level Denver Center
01:56PM 37.0564 -107.3439 246° West 442 509 36,000  Level Denver Center
01:57PM 37.0086 -107.4792 246° West 443 510 36,000  Level Denver Center
01:58PM 36.9514 -107.6350 245° Southwest 442 509 36,000  Level Denver Center
01:59PM 36.9033 -107.7692 246° West 442 509 36,000  Level Denver Center
02:00PM 36.8458 -107.9239 245° Southwest 441 507 36,000  Level Denver Center
02:01PM 36.8011 -108.0592 248° West 440 506 36,000  Level Denver Center
02:02PM 36.7564 -108.2208 251° West 444 511 36,000  Level Denver Center
02:03PM 36.7181 -108.3575 251° West 439 505 36,000  Level Denver Center
02:05PM 36.6731 -108.5175 251° West 439 505 36,000  Level Denver Center
02:06PM 36.6319 -108.6544 250° West 442 509 36,000  Level Denver Center
02:07PM 36.5844 -108.8144 250° West 442 509 36,000  Level Denver Center
02:08PM 36.5431 -108.9489 249° West 439 505 36,000  Level Denver Center
02:09PM 36.4819 -109.1008 243° Southwest 443 510 36,000  Level Denver Center
02:10PM 36.4314 -109.2317 244° Southwest 441 507 36,000  Level Denver Center
02:11PM 36.3708 -109.3836 244° Southwest 442 509 36,000  Level Denver Center
02:12PM 36.3189 -109.5150 244° Southwest 445 512 36,000  Level Denver Center
02:13PM 36.2572 -109.6672 243° Southwest 445 512 36,000  Level Denver Center
02:14PM 36.2058 -109.7972 244° Southwest 443 510 36,000  Level Denver Center
02:15PM 36.1450 -109.9472 243° Southwest 440 506 36,000  Level Denver Center
02:16PM 36.0933 -110.0758 244° Southwest 438 504 36,000  Level Denver Center
02:17PM 36.0431 -110.2144 246° West 442 509 36,000  Level Denver Center
02:18PM 36.0189 -110.3619 259° West 439 505 36,000  Level Denver Center
02:19PM 35.9864 -110.5378 257° West 438 504 36,000  Level Denver Center
02:20PM 35.9600 -110.6842 257° West 438 504 36,000  Level Denver Center
02:21PM 35.9319 -110.8311 257° West 439 505 36,000  Level Denver Center
02:22PM 35.9047 -110.9778 257° West 439 505 36,000  Level Denver Center
02:23PM 35.8725 -111.1242 255° West 441 507 36,000  Level Denver Center
02:24PM 35.8394 -111.2700 254° West 442 509 36,000  Level Denver Center
02:25PM 35.8003 -111.4469 255° West 445 512 36,000  Level Denver Center
02:26PM 35.7689 -111.5939 255° West 445 512 36,000  Level Denver Center
02:27PM 35.7311 -111.7389 252° West 445 512 36,000  Level Denver Center
02:28PM 35.7117 -111.8083 251° West 443 510 36,000  Level Los Angeles Center
02:29PM 35.6536 -111.9378 241° Southwest 435 501 36,000  Level Los Angeles Center
02:30PM 35.5994 -112.0353 236° Southwest 435 501 36,000  Level Albuquerque Center
02:31PM 35.5322 -112.1569 236° Southwest 432 497 36,000  Level Albuquerque Center
02:32PM 35.4394 -112.3297 237° Southwest 434 499 36,000  Level Los Angeles Center
02:33PM 35.3714 -112.4522 236° Southwest 436 502 36,000  Level Los Angeles Center
02:34PM 35.3167 -112.5492 235° Southwest 433 498 36,000  Level Albuquerque Center
02:35PM 35.2483 -112.6728 236° Southwest 435 501 36,000  Level Albuquerque Center
02:36PM 35.1789 -112.7967 236° Southwest 436 502 36,000  Level Albuquerque Center
02:37PM 35.1097 -112.9214 236° Southwest 438 504 36,000  Level Albuquerque Center
02:38PM 35.0414 -113.0439 236° Southwest 437 503 36,000  Level Albuquerque Center
02:39PM 34.9736 -113.1639 235° Southwest 432 497 36,000 -180 Level Albuquerque Center
02:40PM 34.8928 -113.3089 236° Southwest 432 497 35,700 -660 Descending Albuquerque Center
02:41PM 34.8236 -113.4281 235° Southwest 433 498 34,700 -840 Descending Albuquerque Center
02:42PM 34.7561 -113.5486 236° Southwest 433 498 34,000 -360 Descending Albuquerque Center
02:43PM 34.6861 -113.6714 235° Southwest 439 505 34,000  Level Albuquerque Center
02:44PM 34.6106 -113.8039 235° Southwest 436 502 34,000  Level Albuquerque Center
02:45PM 34.5419 -113.9236 235° Southwest 434 499 34,000  Level Albuquerque Center
02:46PM 34.4731 -114.0422 235° Southwest 431 496 34,000  Level Albuquerque Center
02:47PM 34.4044 -114.1603 235° Southwest 430 495 34,000  Level Albuquerque Center
02:48PM 34.3361 -114.2794 235° Southwest 430 495 34,000  Level Albuquerque Center
02:49PM 34.2542 -114.4206 235° Southwest 428 493 34,000 -120 Level Albuquerque Center
02:50PM 34.2239 -114.4739 236° Southwest 429 494 33,900  Descending Los Angeles Center
02:51PM 34.1553 -114.5911 235° Southwest 429 494 34,000  Climbing Los Angeles Center
02:52PM 34.0889 -114.7089 236° Southwest 428 493 33,900 -60 Descending Los Angeles Center
02:53PM 34.0333 -114.8392 243° Southwest 433 498 33,900  Level Los Angeles Center
02:54PM 33.9775 -114.9678 242° Southwest 435 501 34,000  Climbing Los Angeles Center
02:55PM 33.9092 -115.1217 242° Southwest 435 501 33,900 -480 Descending Los Angeles Center
02:56PM 33.8517 -115.2503 242° Southwest 436 502 33,000 -960 Descending Los Angeles Center
02:57PM 33.7947 -115.3781 242° Southwest 436 502 32,000 -1,020 Descending Los Angeles Center
02:58PM 33.7361 -115.5075 241° Southwest 440 506 31,000 -1,200 Descending Los Angeles Center
02:59PM 33.6783 -115.6372 242° Southwest 442 509 29,600 -2,040 Descending Los Angeles Center
03:00PM 33.6061 -115.7900 240° Southwest 440 506 26,800 -2,400 Descending Los Angeles Center
03:01PM 33.5392 -115.9067 235° Southwest 430 495 24,700 -1,440 Descending Los Angeles Center
03:02PM 33.4575 -116.0014 224° Southwest 419 482 23,900 -1,800 Descending Los Angeles Center
03:03PM 33.3689 -116.0892 220° Southwest 413 475 21,000 -2,580 Descending Los Angeles Center
03:04PM 33.2786 -116.1781 219° Southwest 418 481 18,600 -2,520 Descending Los Angeles Center
03:05PM 33.1914 -116.2622 219° Southwest 409 471 15,800 -3,180 Descending Los Angeles Center
03:06PM 33.0928 -116.3586 219° Southwest 389 448 12,100 -1,860 Descending Los Angeles Center
03:07PM 33.0183 -116.4311 219° Southwest 345 397 12,000 -360 Descending Los Angeles Center
03:08PM 32.9414 -116.4814 209° Southwest 319 367 11,400 -840 Descending Los Angeles Center
03:09PM 32.8544 -116.5319 206° Southwest 313 360 10,300 -1,020 Descending Los Angeles Center
03:10PM 32.8064 -116.6106 234° Southwest 305 351 9,300 -1,200 Descending Los Angeles Center
03:11PM 32.7650 -116.6953 240° Southwest 298 343 7,800 -1,500 Descending Los Angeles Center
03:13PM 32.7264 -116.7778 241° Southwest 291 335 6,300 -1,020 Descending Los Angeles Center
03:14PM 32.6981 -116.8433 243° Southwest 284 327 5,800 -780 Descending Los Angeles Center
03:15PM 32.6722 -116.9356 252° West 252 290 4,700 -1,560 Descending Los Angeles Center
03:16PM 32.7000 -117.0333 289° West 220 253 2,500 -1,440 Descending Southern California TRACON
03:17PM 32.7167 -117.0833 292° West 178 205 1,700 -840 Descending Southern California TRACON
03:18PM 32.7167 -117.1333 270° West 136 157 900 -720 Descending Southern California TRACON
03:19PM 32.7333 -117.1667 301° West 140 161 400 -600 Descending Southern California TRACON